createdAt,value
2018-06-12T00:01:50.437Z,64.80
2018-06-12T00:04:24.856Z,65.67
2018-06-12T00:06:59.176Z,65.69
2018-06-12T00:09:33.718Z,66.34
2018-06-12T00:12:08.171Z,66.15
2018-06-12T00:14:42.725Z,66.63
2018-06-12T00:17:17.464Z,66.42
2018-06-12T00:19:52.077Z,66.87
2018-06-12T00:22:26.626Z,67.02
2018-06-12T00:25:01.284Z,67.40
2018-06-12T00:27:35.661Z,67.51
2018-06-12T00:30:10.200Z,67.36
2018-06-12T00:32:44.632Z,68.01
2018-06-12T00:35:18.980Z,68.51
2018-06-12T00:37:53.508Z,68.57
2018-06-12T00:40:28.176Z,69.16
2018-06-12T00:43:02.534Z,69.07
2018-06-12T00:45:37.136Z,69.96
2018-06-12T00:48:11.594Z,68.98
2018-06-12T00:50:46.103Z,70.03
2018-06-12T00:53:20.846Z,69.84
2018-06-12T00:55:55.268Z,70.04
2018-06-12T00:58:29.709Z,69.62
2018-06-12T01:01:04.557Z,70.66
2018-06-12T01:03:39.529Z,70.10
2018-06-12T01:06:14.033Z,70.62
2018-06-12T01:08:48.612Z,70.18
2018-06-12T01:11:23.137Z,71.09
2018-06-12T01:13:57.645Z,70.25
2018-06-12T01:16:32.166Z,71.65
2018-06-12T01:19:06.760Z,71.08
2018-06-12T01:21:41.320Z,72.49
2018-06-12T01:24:15.890Z,72.43
2018-06-12T01:26:50.362Z,72.84
2018-06-12T01:29:24.765Z,72.57
2018-06-12T01:31:59.253Z,72.26
2018-06-12T01:34:33.822Z,72.72
2018-06-12T01:37:08.320Z,72.67
2018-06-12T01:39:42.860Z,72.84
2018-06-12T01:42:17.260Z,73.52
2018-06-12T01:44:51.565Z,74.19
2018-06-12T01:47:25.961Z,74.91
2018-06-12T01:50:00.561Z,74.00
2018-06-12T01:52:35.170Z,74.55
2018-06-12T01:55:09.634Z,74.77
2018-06-12T01:57:44.313Z,74.31
2018-06-12T02:00:18.744Z,74.62
2018-06-12T02:02:53.148Z,75.46
2018-06-12T02:05:27.768Z,75.27
2018-06-12T02:08:02.435Z,76.23
2018-06-12T02:10:36.798Z,74.96
2018-06-12T02:13:11.171Z,74.91
2018-06-12T02:15:45.856Z,74.98
2018-06-12T02:18:20.510Z,75.65
2018-06-12T02:20:55.413Z,75.15
2018-06-12T02:23:29.796Z,75.72
2018-06-12T02:26:04.239Z,75.58
2018-06-12T02:28:38.747Z,75.82
2018-06-12T02:31:13.249Z,75.62
2018-06-12T02:33:47.638Z,75.97
2018-06-12T02:36:22.085Z,76.01
2018-06-12T02:38:56.657Z,76.58
2018-06-12T02:41:31.430Z,76.39
2018-06-12T02:44:06.038Z,75.94
2018-06-12T02:46:40.589Z,76.25
2018-06-12T02:49:15.073Z,76.31
2018-06-12T02:51:49.595Z,75.84
2018-06-12T02:54:24.222Z,76.18
2018-06-12T02:56:58.780Z,76.46
2018-06-12T02:59:33.237Z,76.69
2018-06-12T03:02:07.731Z,76.19
2018-06-12T03:04:42.086Z,76.89
2018-06-12T03:07:16.440Z,77.39
2018-06-12T03:09:51.273Z,77.28
2018-06-12T03:12:25.874Z,77.10
2018-06-12T03:15:00.531Z,77.41
2018-06-12T03:17:35.133Z,77.76
2018-06-12T03:20:09.821Z,77.26
2018-06-12T03:22:44.237Z,76.27
2018-06-12T03:25:18.804Z,76.85
2018-06-12T03:27:53.260Z,76.95
2018-06-12T03:30:28.169Z,76.70
2018-06-12T03:33:02.701Z,76.71
2018-06-12T03:35:37.107Z,77.16
2018-06-12T03:38:11.605Z,77.48
2018-06-12T03:40:45.976Z,77.30
2018-06-12T03:43:20.407Z,77.33
2018-06-12T03:45:55.066Z,77.37
2018-06-12T03:48:29.829Z,78.22
2018-06-12T03:51:04.470Z,77.23
2018-06-12T03:53:38.959Z,78.43
2018-06-12T03:56:13.451Z,77.28
2018-06-12T03:58:47.842Z,77.01
2018-06-12T04:01:22.289Z,76.80
2018-06-12T04:03:56.920Z,76.22
2018-06-12T04:06:35.094Z,75.72
2018-06-12T04:09:09.756Z,75.72
2018-06-12T04:11:44.170Z,75.94
2018-06-12T04:14:19.012Z,75.99
2018-06-12T04:16:54.006Z,75.97
2018-06-12T04:19:28.556Z,76.19
2018-06-12T04:22:02.981Z,76.03
2018-06-12T04:24:37.527Z,75.28
2018-06-12T04:27:12.081Z,76.08
2018-06-12T04:29:46.569Z,75.67
2018-06-12T04:32:21.009Z,75.65
2018-06-12T04:34:55.400Z,75.45
2018-06-12T04:37:29.829Z,75.46
2018-06-12T04:40:04.224Z,75.62
2018-06-12T04:42:39.065Z,75.16
2018-06-12T04:45:13.432Z,75.15
2018-06-12T04:47:47.843Z,75.13
2018-06-12T04:50:22.348Z,75.33
2018-06-12T04:52:56.937Z,75.02
2018-06-12T04:55:31.593Z,75.10
2018-06-12T04:58:06.169Z,74.54
2018-06-12T05:00:40.707Z,74.05
2018-06-12T05:03:15.200Z,75.05
2018-06-12T05:05:49.817Z,74.80
2018-06-12T05:08:24.344Z,75.46
2018-06-12T05:10:58.692Z,75.12
2018-06-12T05:13:33.382Z,74.00
2018-06-12T05:16:07.916Z,73.52
2018-06-12T05:18:42.449Z,73.95
2018-06-12T05:21:17.444Z,74.42
2018-06-12T05:23:51.828Z,73.30
2018-06-12T05:26:26.346Z,74.04
2018-06-12T05:29:00.977Z,73.80
2018-06-12T05:31:35.485Z,74.02
2018-06-12T05:34:10.077Z,73.34
2018-06-12T05:36:44.636Z,72.77
2018-06-12T05:39:19.113Z,73.18
2018-06-12T05:41:53.571Z,72.16
2018-06-12T05:44:27.963Z,71.60
2018-06-12T05:47:02.558Z,71.48
2018-06-12T05:49:36.988Z,72.00
2018-06-12T05:52:11.485Z,71.08
2018-06-12T05:54:46.079Z,70.53
2018-06-12T05:57:20.528Z,70.36
2018-06-12T05:59:54.958Z,70.19
2018-06-12T06:02:29.303Z,69.57
2018-06-12T06:05:03.818Z,68.32
2018-06-12T06:07:38.342Z,67.65
2018-06-12T06:10:12.874Z,67.62
2018-06-12T06:12:47.646Z,67.72
2018-06-12T06:15:22.095Z,68.29
2018-06-12T06:17:56.577Z,68.97
2018-06-12T06:20:31.020Z,68.83
2018-06-12T06:23:05.376Z,68.33
2018-06-12T06:25:39.724Z,67.94
2018-06-12T06:28:14.133Z,68.17
2018-06-12T06:30:48.820Z,65.73
2018-06-12T06:33:23.306Z,66.23
2018-06-12T06:35:57.701Z,66.48
2018-06-12T06:38:32.076Z,65.53
2018-06-12T06:41:06.433Z,65.01
2018-06-12T06:43:41.215Z,65.36
2018-06-12T06:46:15.814Z,66.54
2018-06-12T06:48:50.356Z,64.86
2018-06-12T06:51:24.845Z,63.71
2018-06-12T06:53:59.371Z,65.10
2018-06-12T06:56:33.889Z,64.57
2018-06-12T06:59:08.464Z,64.17
2018-06-12T07:01:43.009Z,65.00
2018-06-12T07:04:17.452Z,64.03
2018-06-12T07:06:51.953Z,61.38
2018-06-12T07:09:26.404Z,61.58
2018-06-12T07:12:00.856Z,61.83
2018-06-12T07:14:35.231Z,61.91
2018-06-12T07:17:09.993Z,62.15
2018-06-12T07:19:44.629Z,61.63
2018-06-12T07:22:18.976Z,62.07
2018-06-12T07:24:53.697Z,62.24
2018-06-12T07:27:28.300Z,61.49
2018-06-12T07:30:02.836Z,61.66
2018-06-12T07:32:37.536Z,61.35
2018-06-12T07:35:12.045Z,62.11
2018-06-12T07:37:46.555Z,60.92
2018-06-12T07:40:21.169Z,60.20
2018-06-12T07:42:55.597Z,59.60
2018-06-12T07:45:30.188Z,61.43
2018-06-12T07:48:04.881Z,61.04
2018-06-12T07:50:39.433Z,60.18
2018-06-12T07:53:14.099Z,61.16
2018-06-12T07:55:48.762Z,62.18
2018-06-12T07:58:23.392Z,60.52
2018-06-12T08:00:57.806Z,60.10
2018-06-12T08:03:32.096Z,60.12
2018-06-12T08:06:06.650Z,59.69
2018-06-12T08:08:41.347Z,60.12
2018-06-12T08:11:15.973Z,59.02
2018-06-12T08:13:50.285Z,60.17
2018-06-12T08:16:24.745Z,60.28
2018-06-12T08:18:59.248Z,59.05
2018-06-12T08:21:33.805Z,58.68
2018-06-12T08:24:08.159Z,58.12
2018-06-12T08:26:42.573Z,57.10
2018-06-12T08:29:17.233Z,57.13
2018-06-12T08:31:51.744Z,56.04
2018-06-12T08:34:26.076Z,55.92
2018-06-12T08:37:00.767Z,55.27
2018-06-12T08:39:35.249Z,55.23
2018-06-12T08:42:09.757Z,55.84
2018-06-12T08:44:44.161Z,54.33
2018-06-12T08:47:18.645Z,53.86
2018-06-12T08:49:53.112Z,50.97
2018-06-12T08:52:27.635Z,51.49
2018-06-12T08:55:02.042Z,51.12
2018-06-12T08:57:36.582Z,53.42
2018-06-12T09:00:11.185Z,52.09
2018-06-12T09:02:45.736Z,52.66
2018-06-12T09:05:20.159Z,51.18
2018-06-12T09:07:54.839Z,51.97
2018-06-12T09:10:29.561Z,51.28
2018-06-12T09:13:04.221Z,50.35
2018-06-12T09:15:38.561Z,51.09
2018-06-12T09:18:13.335Z,51.68
2018-06-12T09:20:47.775Z,52.29
2018-06-12T09:23:22.214Z,51.31
2018-06-12T09:25:56.662Z,52.66
2018-06-12T09:28:31.049Z,52.67
2018-06-12T09:31:05.473Z,52.18
2018-06-12T09:33:40.001Z,53.68
2018-06-12T09:36:19.964Z,52.45
2018-06-12T09:38:54.538Z,53.49
2018-06-12T09:41:29.108Z,52.17
2018-06-12T09:44:03.583Z,52.49
2018-06-12T09:46:38.159Z,52.38
2018-06-12T09:49:12.528Z,54.20
2018-06-12T09:51:46.957Z,53.90
2018-06-12T09:54:21.955Z,52.87
2018-06-12T09:56:56.449Z,53.19
2018-06-12T09:59:31.085Z,53.56
2018-06-12T10:02:06.102Z,53.93
2018-06-12T10:04:40.634Z,53.75
2018-06-12T10:07:15.000Z,50.78
2018-06-12T10:09:49.514Z,50.23
2018-06-12T10:12:24.073Z,51.87
2018-06-12T10:14:59.074Z,51.49
2018-06-12T10:17:33.562Z,50.97
2018-06-12T10:20:08.244Z,50.85
2018-06-12T10:22:42.729Z,48.58
2018-06-12T10:25:17.165Z,48.55
2018-06-12T10:27:51.760Z,48.31
2018-06-12T10:30:26.181Z,47.91
2018-06-12T10:33:00.600Z,48.06
2018-06-12T10:35:35.203Z,46.57
2018-06-12T10:38:09.733Z,45.52
2018-06-12T10:40:44.092Z,46.91
2018-06-12T10:43:18.690Z,46.80
2018-06-12T10:45:53.096Z,47.00
2018-06-12T10:48:27.631Z,49.21
2018-06-12T10:51:02.007Z,48.64
2018-06-12T10:53:36.622Z,48.87
2018-06-12T10:56:11.015Z,47.38
2018-06-12T10:58:45.436Z,47.41
2018-06-12T11:01:19.948Z,48.76
2018-06-12T11:03:54.883Z,49.73
2018-06-12T11:06:29.337Z,50.37
2018-06-12T11:09:04.760Z,51.97
2018-06-12T11:11:39.099Z,51.81
2018-06-12T11:14:13.638Z,50.38
2018-06-12T11:16:55.400Z,51.76
2018-06-12T11:19:29.842Z,50.87
2018-06-12T11:22:04.340Z,51.59
2018-06-12T11:24:38.798Z,52.52
2018-06-12T11:27:13.194Z,50.78
2018-06-12T11:29:47.688Z,50.78
2018-06-12T11:32:22.468Z,51.13
2018-06-12T11:34:57.078Z,50.18
2018-06-12T11:37:31.577Z,50.36
2018-06-12T11:40:06.018Z,50.68
2018-06-12T11:42:40.632Z,52.41
2018-06-12T11:45:15.671Z,51.19
2018-06-12T11:47:50.255Z,50.05
2018-06-12T11:50:24.982Z,52.48
2018-06-12T11:52:59.389Z,51.03
2018-06-12T11:55:33.863Z,50.02
2018-06-12T11:58:08.428Z,50.29
2018-06-12T12:00:43.142Z,50.61
2018-06-12T12:03:17.767Z,50.02
2018-06-12T12:05:52.133Z,49.12
2018-06-12T12:08:26.547Z,50.02
2018-06-12T12:11:01.093Z,49.98
2018-06-12T12:13:35.541Z,51.51
2018-06-12T12:16:09.919Z,47.83
2018-06-12T12:18:44.288Z,50.21
2018-06-12T12:21:18.705Z,46.36
2018-06-12T12:23:53.074Z,46.55
2018-06-12T12:26:27.483Z,48.56
2018-06-12T12:29:02.084Z,47.83
2018-06-12T12:31:36.745Z,49.68
2018-06-12T12:34:11.783Z,49.09
2018-06-12T12:36:46.311Z,48.00
2018-06-12T12:39:20.788Z,47.51
2018-06-12T12:41:55.356Z,49.11
2018-06-12T12:44:29.963Z,50.89
2018-06-12T12:47:04.908Z,52.94
2018-06-12T12:49:39.604Z,53.31
2018-06-12T12:52:14.123Z,53.78
2018-06-12T12:54:48.771Z,51.95
2018-06-12T12:57:23.303Z,53.46
2018-06-12T12:59:58.094Z,53.13
2018-06-12T13:02:32.870Z,54.43
2018-06-12T13:05:07.857Z,53.21
2018-06-12T13:07:42.287Z,53.31
2018-06-12T13:10:16.804Z,53.09
2018-06-12T13:12:51.424Z,53.36
2018-06-12T13:15:25.923Z,53.11
2018-06-12T13:18:00.274Z,51.83
2018-06-12T13:20:34.648Z,52.93
2018-06-12T13:23:09.107Z,53.37
2018-06-12T13:25:44.057Z,55.36
2018-06-12T13:28:18.788Z,57.58
2018-06-12T13:30:53.467Z,59.37
2018-06-12T13:33:27.986Z,60.40
2018-06-12T13:36:02.632Z,61.00
2018-06-12T13:38:37.155Z,63.92
2018-06-12T13:41:11.607Z,63.83
2018-06-12T13:43:46.125Z,65.03
2018-06-12T13:46:20.549Z,65.73
2018-06-12T13:48:54.986Z,64.96
2018-06-12T13:51:29.503Z,65.51
2018-06-12T13:54:04.460Z,66.79
2018-06-12T13:56:38.883Z,64.37
2018-06-12T13:59:13.368Z,66.89
2018-06-12T14:01:47.809Z,68.93
2018-06-12T14:04:22.515Z,66.56
2018-06-12T14:06:57.254Z,68.77
2018-06-12T14:09:31.756Z,69.39
2018-06-12T14:12:06.423Z,71.57
2018-06-12T14:14:41.191Z,69.89
2018-06-12T14:17:15.645Z,69.68
2018-06-12T14:19:50.280Z,70.98
2018-06-12T14:22:24.689Z,72.55
2018-06-12T14:24:59.098Z,71.52
2018-06-12T14:27:33.478Z,72.51
2018-06-12T14:30:07.954Z,72.02
2018-06-12T14:32:42.349Z,73.51
2018-06-12T14:35:16.945Z,72.47
2018-06-12T14:37:51.661Z,72.33
2018-06-12T14:40:26.366Z,71.33
2018-06-12T14:43:00.913Z,72.39
2018-06-12T14:45:35.269Z,72.99
2018-06-12T14:48:09.824Z,72.42
2018-06-12T14:50:44.601Z,73.21
2018-06-12T14:53:19.111Z,72.66
2018-06-12T14:55:53.576Z,73.04
2018-06-12T14:58:28.028Z,71.98
2018-06-12T15:01:02.428Z,70.98
2018-06-12T15:03:37.001Z,68.92
2018-06-12T15:06:11.499Z,70.92
2018-06-12T15:08:46.037Z,72.48
2018-06-12T15:11:20.609Z,74.25
2018-06-12T15:13:55.000Z,75.73
2018-06-12T15:16:29.470Z,75.88
2018-06-12T15:19:03.987Z,75.27
2018-06-12T15:21:38.538Z,76.36
2018-06-12T15:24:12.995Z,76.11
2018-06-12T15:26:47.601Z,76.59
2018-06-12T15:29:22.209Z,76.33
2018-06-12T15:31:56.757Z,78.47
2018-06-12T15:34:31.325Z,77.66
2018-06-12T15:37:06.228Z,78.66
2018-06-12T15:39:40.688Z,81.45
2018-06-12T15:42:15.098Z,81.09
2018-06-12T15:44:49.590Z,79.51
2018-06-12T15:47:24.197Z,80.64
2018-06-12T15:49:58.632Z,81.94
2018-06-12T15:52:33.042Z,80.90
2018-06-12T15:55:07.609Z,80.11
2018-06-12T15:57:42.037Z,80.01
2018-06-12T16:00:16.391Z,78.40
2018-06-12T16:02:50.783Z,78.73
2018-06-12T16:05:25.169Z,77.03
2018-06-12T16:07:59.642Z,76.50
2018-06-12T16:10:34.073Z,75.77
2018-06-12T16:13:08.556Z,75.45
2018-06-12T16:15:42.947Z,76.53
2018-06-12T16:18:17.541Z,72.84
2018-06-12T16:20:52.125Z,71.20
2018-06-12T16:23:26.755Z,72.61
2018-06-12T16:26:01.834Z,71.59
2018-06-12T16:28:36.258Z,71.70
2018-06-12T16:31:10.760Z,73.44
2018-06-12T16:33:45.306Z,72.89
2018-06-12T16:36:19.761Z,70.63
2018-06-12T16:38:54.388Z,69.46
2018-06-12T16:41:29.028Z,68.78
2018-06-12T16:44:03.395Z,68.87
2018-06-12T16:46:37.840Z,69.89
2018-06-12T16:49:12.319Z,70.74
2018-06-12T16:51:46.965Z,71.44
2018-06-12T16:54:21.426Z,69.53
2018-06-12T16:56:55.925Z,69.07
2018-06-12T16:59:30.556Z,65.93
2018-06-12T17:02:05.125Z,66.09
2018-06-12T17:04:39.550Z,63.96
2018-06-12T17:07:13.775Z,64.32
2018-06-12T17:09:48.033Z,63.69
2018-06-12T17:12:22.512Z,63.83
2018-06-12T17:14:56.891Z,63.34
2018-06-12T17:17:31.292Z,63.28
2018-06-12T17:20:05.760Z,63.16
2018-06-12T17:22:40.132Z,63.51
2018-06-12T17:25:14.689Z,64.40
2018-06-12T17:27:48.993Z,63.86
2018-06-12T17:30:23.375Z,64.56
2018-06-12T17:32:57.843Z,65.25
2018-06-12T17:35:32.260Z,65.55
2018-06-12T17:38:06.689Z,64.87
2018-06-12T17:40:41.045Z,66.38
2018-06-12T17:43:15.303Z,65.98
2018-06-12T17:45:49.708Z,66.34
2018-06-12T17:48:23.994Z,67.29
2018-06-12T17:50:58.686Z,69.17
2018-06-12T17:56:31.672Z,68.80
2018-06-12T17:59:05.953Z,69.30
2018-06-12T18:01:40.252Z,68.51
2018-06-12T18:04:14.640Z,69.06
2018-06-12T18:06:48.900Z,68.30
2018-06-12T18:09:23.179Z,68.69
2018-06-12T18:11:57.887Z,69.05
2018-06-12T18:14:32.392Z,69.64
2018-06-12T18:17:07.011Z,70.43
2018-06-12T18:19:41.650Z,69.24
2018-06-12T18:22:16.244Z,68.82
2018-06-12T18:24:50.855Z,68.30
2018-06-12T18:27:25.412Z,68.80
2018-06-12T18:29:59.876Z,69.71
2018-06-12T18:32:34.303Z,69.65
2018-06-12T18:35:08.843Z,69.94
2018-06-12T18:37:43.326Z,70.18
2018-06-12T18:40:18.124Z,71.53
2018-06-12T18:42:52.612Z,71.67
2018-06-12T18:45:26.973Z,72.55
2018-06-12T18:48:01.408Z,72.67
2018-06-12T18:50:35.964Z,73.44
2018-06-12T18:53:10.446Z,73.20
2018-06-12T18:55:44.828Z,74.20
2018-06-12T18:58:19.266Z,74.54
2018-06-12T19:00:53.711Z,74.41
2018-06-12T19:03:28.628Z,75.45
2018-06-12T19:06:03.148Z,74.93
2018-06-12T19:08:37.600Z,75.45
2018-06-12T19:11:12.164Z,75.75
2018-06-12T19:13:46.507Z,75.36
2018-06-12T19:16:21.023Z,74.59
2018-06-12T19:18:56.126Z,74.08
2018-06-12T19:21:30.966Z,73.50
2018-06-12T19:24:05.825Z,73.63
2018-06-12T19:26:40.322Z,73.46
2018-06-12T19:29:14.760Z,73.29
2018-06-12T19:31:49.189Z,73.01
2018-06-12T19:34:23.723Z,73.66
2018-06-12T19:36:58.560Z,73.20
2018-06-12T19:39:33.145Z,74.53
2018-06-12T19:42:07.553Z,74.18
2018-06-12T19:44:42.144Z,73.94
2018-06-12T19:47:16.586Z,74.17
2018-06-12T19:49:51.265Z,73.39
2018-06-12T19:52:26.082Z,72.86
2018-06-12T19:55:00.648Z,72.69
2018-06-12T19:57:35.092Z,72.81
2018-06-12T20:00:09.501Z,73.61
2018-06-12T20:02:43.889Z,73.22
2018-06-12T20:05:18.502Z,73.35
2018-06-12T20:07:53.055Z,73.46
2018-06-12T20:10:27.769Z,73.26
2018-06-12T20:13:02.303Z,72.09
2018-06-12T20:15:36.581Z,71.41
2018-06-12T20:18:11.263Z,71.17
2018-06-12T20:20:45.690Z,70.62
2018-06-12T20:23:20.284Z,69.76
2018-06-12T20:25:54.892Z,70.44
2018-06-12T20:28:29.567Z,71.19
2018-06-12T20:31:04.100Z,70.83
2018-06-12T20:33:38.739Z,71.98
2018-06-12T20:36:13.321Z,71.40
2018-06-12T20:38:47.784Z,71.21
2018-06-12T20:41:22.225Z,72.72
2018-06-12T20:43:56.656Z,72.16
2018-06-12T20:46:31.328Z,72.37
2018-06-12T20:49:05.714Z,72.73
2018-06-12T20:51:40.172Z,72.38
2018-06-12T20:54:14.688Z,73.09
2018-06-12T20:56:49.423Z,72.41
2018-06-12T20:59:23.881Z,72.79
2018-06-12T21:01:58.446Z,72.00
2018-06-12T21:04:33.049Z,72.21
2018-06-12T21:07:08.738Z,72.28
2018-06-12T21:09:43.168Z,72.18
2018-06-12T21:12:17.672Z,72.46
2018-06-12T21:14:52.203Z,71.57
2018-06-12T21:17:26.847Z,71.06
2018-06-12T21:20:01.500Z,70.72
2018-06-12T21:22:36.149Z,71.67
2018-06-12T21:25:10.835Z,71.98
2018-06-12T21:27:45.430Z,71.33
2018-06-12T21:30:20.039Z,71.29
2018-06-12T21:32:54.590Z,71.89
2018-06-12T21:35:29.001Z,71.41
2018-06-12T21:38:03.416Z,71.65
2018-06-12T21:40:37.861Z,71.71
2018-06-12T21:43:12.322Z,72.53
2018-06-12T21:45:46.950Z,72.20
2018-06-12T21:48:21.581Z,72.22
2018-06-12T21:50:56.080Z,72.05
2018-06-12T21:53:30.699Z,72.45
2018-06-12T21:56:05.027Z,72.95
2018-06-12T21:58:39.404Z,73.02
2018-06-12T22:01:13.915Z,72.14
2018-06-12T22:03:48.443Z,71.38
2018-06-12T22:06:22.879Z,71.99
2018-06-12T22:08:57.315Z,70.78
2018-06-12T22:11:31.809Z,71.08
2018-06-12T22:14:06.284Z,70.48
2018-06-12T22:16:41.119Z,70.19
2018-06-12T22:19:15.694Z,70.44
2018-06-12T22:21:50.025Z,69.87
2018-06-12T22:24:27.110Z,69.83
2018-06-12T22:27:01.540Z,70.60
2018-06-12T22:29:35.936Z,71.19
2018-06-12T22:32:10.340Z,70.82
2018-06-12T22:34:44.668Z,71.48
2018-06-12T22:37:19.313Z,71.55
2018-06-12T22:39:53.813Z,71.86
2018-06-12T22:42:28.174Z,71.62
2018-06-12T22:45:02.681Z,72.96
2018-06-12T22:47:37.305Z,74.23
2018-06-12T22:50:11.772Z,74.29
2018-06-12T22:52:46.236Z,74.13
2018-06-12T22:55:20.771Z,74.77
2018-06-12T22:57:55.256Z,73.81
2018-06-12T23:00:29.703Z,73.42
2018-06-12T23:03:04.276Z,74.24
2018-06-12T23:05:38.840Z,74.64
2018-06-12T23:08:13.288Z,74.06
2018-06-12T23:10:47.712Z,72.73
2018-06-12T23:13:22.124Z,72.70
2018-06-12T23:15:56.668Z,73.88
2018-06-12T23:18:31.446Z,72.92
2018-06-12T23:21:17.291Z,73.74
2018-06-12T23:23:51.824Z,72.17
2018-06-12T23:26:26.428Z,73.29
2018-06-12T23:29:01.011Z,72.39
2018-06-12T23:31:35.436Z,73.22
2018-06-12T23:34:09.876Z,72.99
2018-06-12T23:36:44.670Z,73.33
2018-06-12T23:39:19.368Z,73.65
2018-06-12T23:41:53.908Z,74.20
2018-06-12T23:44:28.399Z,74.69
2018-06-12T23:47:02.818Z,74.79
2018-06-12T23:49:37.390Z,74.28
2018-06-12T23:52:12.029Z,74.23
2018-06-12T23:54:46.632Z,74.37
2018-06-12T23:57:21.161Z,74.27
2018-06-12T23:59:55.588Z,74.58
